PWSweather.com
Personal Weather Stations
Station Observations
WISCHPK61
Green Bay Schmitt Park, Green Bay, WI 54311

Green Bay Schmitt ParkGreen Bay, WI 54311

Lat: 44.514277, Lon: -87.935067

Elevation: 735

Station Type: Acu Rite Pro Weather Center model 02032C

http://greenbayweathercam.com

High Low Average
Temperature 74.0°F23.3°C 39.0°F3.9°C 50.8°F10.4°C
Dew Point 73.7°F23.2°C 34.1°F1.2°C 49.3°F9.6°C
Winds 2.3 mph 3.7 kmh Calm Calm Calm SCalm S
Wind Gusts 2.3 mph3.7 kmh -- --
Humidity 99% 67% 95%
Pressure 29.36 in994.2 mb 29.17 in987.8 mb -
Precipitation 0.11 in2.8 mm - -
Hour Temp Dew Point Humidity Winds Wind Gusts Pressure Precip Precip Rate Daily Precip Total
12:00 AM 42.3°F5.7°C 40.4°F4.7°C 93% Calm Calm -- 29.18 in988.1 mb - 0.03 in0.8 mm 0.03 in0.8 mm
01:00 AM 42.6°F5.9°C 42.1°F5.6°C 98% Calm Calm -- 29.17 in987.8 mb - 0.07 in1.8 mm 0.07 in1.8 mm
02:00 AM 41.7°F5.4°C 41.4°F5.2°C 99% Calm Calm -- 29.17 in987.8 mb - 0.02 in0.5 mm 0.09 in2.3 mm
03:00 AM 41.0°F5.0°C 40.7°F4.8°C 99% Calm Calm -- 29.18 in988.1 mb - 0.02 in0.5 mm 0.11 in2.8 mm
04:00 AM 40.8°F4.9°C 39.2°F4.0°C 94% Calm Calm -- 29.19 in988.5 mb - 0.00 in0.0 mm 0.11 in2.8 mm
05:00 AM 40.8°F4.9°C 36.6°F2.6°C 85% Calm Calm -- 29.20 in988.8 mb - 0.00 in0.0 mm 0.11 in2.8 mm
06:00 AM 41.2°F5.1°C 40.9°F4.9°C 99% 1.2 mph NNW1.9 kmh NNW 2.3 mph3.7 kmh 29.22 in989.5 mb - 0.00 in0.0 mm 0.11 in2.8 mm
07:00 AM 41.5°F5.3°C 41.2°F5.1°C 99% Calm Calm -- 29.25 in990.5 mb - 0.00 in0.0 mm 0.11 in2.8 mm
08:00 AM 42.4°F5.8°C 37.3°F2.9°C 82% 2.3 mph W3.7 kmh W 2.3 mph3.7 kmh 29.27 in991.2 mb - 0.00 in0.0 mm 0.11 in2.8 mm
09:00 AM 45.3°F7.4°C 45.0°F7.2°C 99% 2.3 mph NW3.7 kmh NW 1.2 mph1.9 kmh 29.29 in991.9 mb - 0.00 in0.0 mm 0.11 in2.8 mm
10:00 AM 51.9°F11.1°C 51.6°F10.9°C 99% Calm Calm -- 29.29 in991.9 mb - 0.00 in0.0 mm 0.11 in2.8 mm
11:00 AM 58.0°F14.4°C 57.7°F14.3°C 99% Calm Calm -- 29.30 in992.2 mb - 0.00 in0.0 mm 0.11 in2.8 mm
12:00 PM 61.9°F16.6°C 50.8°F10.4°C 67% Calm Calm -- 29.30 in992.2 mb - 0.00 in0.0 mm 0.11 in2.8 mm
01:00 PM 69.8°F21.0°C 69.5°F20.8°C 99% Calm Calm -- 29.30 in992.2 mb - 0.00 in0.0 mm 0.11 in2.8 mm
02:00 PM 74.0°F23.3°C 73.7°F23.2°C 99% Calm Calm -- 29.30 in992.2 mb - 0.00 in0.0 mm 0.11 in2.8 mm
03:00 PM 72.5°F22.5°C 72.2°F22.3°C 99% Calm Calm -- 29.29 in991.9 mb - 0.00 in0.0 mm 0.11 in2.8 mm
04:00 PM 64.9°F18.3°C 64.6°F18.1°C 99% Calm Calm -- 29.29 in991.9 mb - 0.00 in0.0 mm 0.11 in2.8 mm
05:00 PM 62.8°F17.1°C 62.5°F16.9°C 99% Calm Calm -- 29.29 in991.9 mb - 0.00 in0.0 mm 0.11 in2.8 mm
06:00 PM 61.3°F16.3°C 61.0°F16.1°C 99% Calm Calm -- 29.29 in991.9 mb - 0.00 in0.0 mm 0.11 in2.8 mm
07:00 PM 51.8°F11.0°C 51.6°F10.9°C 99% Calm Calm -- 29.31 in992.6 mb - 0.00 in0.0 mm 0.11 in2.8 mm
08:00 PM 46.8°F8.2°C 46.5°F8.1°C 99% Calm Calm 1.2 mph1.9 kmh 29.33 in993.2 mb - 0.00 in0.0 mm 0.11 in2.8 mm
09:00 PM 43.9°F6.6°C 43.6°F6.4°C 99% Calm Calm -- 29.34 in993.6 mb - 0.00 in0.0 mm 0.11 in2.8 mm
10:00 PM 42.1°F5.6°C 34.1°F1.2°C 73% Calm Calm -- 29.34 in993.6 mb - 0.00 in0.0 mm 0.11 in2.8 mm
11:00 PM 40.6°F4.8°C 40.3°F4.6°C 99% Calm Calm -- 29.36 in994.2 mb - 0.00 in0.0 mm 0.11 in2.8 mm